Time;durP1;ratioP1;P1;durP2;ratioP2;P2;SDS_P1;SDS_P2;PMS_P1;PMS_P2;Temp;Humidity;BMP_temperature;BMP_pressure;BME280_temperature;BME280_humidity;BME280_pressure;Samples;Min_cycle;Max_cycle;Signal;HPM_P1;HPM_P2
2022/03/20 00:01:02;;;;;;;9.57;2.75;;;6.20;98.50;;;;;;4986844;28;20034;-83
2022/03/20 00:03:29;;;;;;;8.75;2.95;;;6.20;98.70;;;;;;4987150;28;20045;-84
2022/03/20 00:05:55;;;;;;;6.57;2.22;;;6.20;98.40;;;;;;5005954;28;20053;-83
2022/03/20 00:08:20;;;;;;;6.95;2.45;;;6.20;98.60;;;;;;4994810;28;20058;-84
2022/03/20 00:10:54;;;;;;;6.45;2.45;;;6.10;98.40;;;;;;5009217;28;20054;-84
2022/03/20 00:13:22;;;;;;;6.55;2.63;;;6.10;99.30;;;;;;4995329;28;20057;-84
2022/03/20 00:15:50;;;;;;;6.93;2.65;;;6.10;99.20;;;;;;4990460;28;20396;-84
2022/03/20 00:18:20;;;;;;;9.80;2.80;;;6.10;99.60;;;;;;5012579;28;20481;-84
2022/03/20 00:21:09;;;;;;;6.85;2.97;;;6.10;99.40;;;;;;4987109;28;20038;-84
2022/03/20 00:23:35;;;;;;;4.20;2.35;;;6.10;99.30;;;;;;5011875;28;20117;-83
2022/03/20 00:26:01;;;;;;;6.63;2.53;;;6.00;99.50;;;;;;5015300;28;20439;-83
2022/03/20 00:28:27;;;;;;;5.22;2.33;;;6.00;99.90;;;;;;4996013;28;20088;-83
2022/03/20 00:30:53;;;;;;;7.65;2.58;;;6.00;99.60;;;;;;4992706;28;20038;-84
2022/03/20 00:33:19;;;;;;;6.53;2.60;;;5.90;99.90;;;;;;5010536;28;20097;-84
2022/03/20 00:35:45;;;;;;;6.32;2.38;;;5.90;99.60;;;;;;4983393;28;20076;-84
2022/03/20 00:38:11;;;;;;;5.93;2.63;;;5.90;99.90;;;;;;4994584;28;20453;-83
2022/03/20 00:40:37;;;;;;;7.50;3.10;;;5.90;99.90;;;;;;4985733;28;20118;-83
2022/03/20 00:43:04;;;;;;;9.45;2.75;;;5.90;99.90;;;;;;5011514;28;20037;-84
2022/03/20 00:45:30;;;;;;;6.95;2.45;;;5.90;99.90;;;;;;4994777;28;20045;-83
2022/03/20 00:47:56;;;;;;;6.22;2.60;;;5.80;99.90;;;;;;5018373;28;20041;-83
2022/03/20 00:50:22;;;;;;;6.25;2.83;;;5.80;99.90;;;;;;4991141;28;20052;-83
2022/03/20 00:52:48;;;;;;;7.63;2.55;;;5.80;99.90;;;;;;4997656;28;20133;-83
2022/03/20 00:55:14;;;;;;;7.50;2.90;;;5.80;99.90;;;;;;4993950;28;20151;-83
2022/03/20 00:57:39;;;;;;;7.85;2.60;;;5.70;99.90;;;;;;4994733;28;20518;-83
2022/03/20 01:00:06;;;;;;;8.20;2.80;;;5.70;99.90;;;;;;4994570;28;20033;-83
2022/03/20 01:02:43;;;;;;;6.25;2.90;;;5.70;99.90;;;;;;4976424;28;20176;-83
2022/03/20 01:05:09;;;;;;;6.68;3.10;;;5.70;99.90;;;;;;4994407;28;20137;-84
2022/03/20 01:07:36;;;;;;;6.72;2.60;;;5.70;99.90;;;;;;4990042;28;20065;-83
2022/03/20 01:10:04;;;;;;;5.25;2.70;;;5.60;99.90;;;;;;4988736;28;20369;-83
2022/03/20 01:12:32;;;;;;;6.60;2.70;;;5.60;99.90;;;;;;4993635;28;20042;-83
2022/03/20 01:14:58;;;;;;;5.28;2.80;;;5.60;99.90;;;;;;4993277;28;20065;-83
2022/03/20 01:17:24;;;;;;;6.38;3.00;;;5.60;99.90;;;;;;4994193;28;20084;-84
2022/03/20 01:19:50;;;;;;;6.05;3.10;;;5.50;99.90;;;;;;4992833;28;20088;-84
2022/03/20 01:22:16;;;;;;;6.45;3.00;;;5.50;99.90;;;;;;4977005;28;20041;-83
2022/03/20 01:24:42;;;;;;;7.78;3.10;;;5.50;99.90;;;;;;4995648;28;20407;-84
2022/03/20 01:27:09;;;;;;;6.22;3.58;;;5.50;99.90;;;;;;4999482;28;20042;-84
2022/03/20 01:29:35;;;;;;;8.43;3.33;;;5.50;99.90;;;;;;4995053;28;20450;-83
2022/03/20 01:32:01;;;;;;;6.32;3.30;;;5.50;99.90;;;;;;4990023;28;21693;-84
2022/03/20 01:34:26;;;;;;;7.78;3.20;;;5.50;99.90;;;;;;4999481;28;20074;-83
2022/03/20 01:36:53;;;;;;;7.88;3.65;;;5.50;99.90;;;;;;4995214;28;20074;-83
2022/03/20 01:39:19;;;;;;;7.63;3.60;;;5.40;99.90;;;;;;4978948;28;20078;-83
2022/03/20 01:41:46;;;;;;;9.57;3.65;;;5.40;99.90;;;;;;4992528;28;20069;-83
2022/03/20 01:44:12;;;;;;;7.70;3.67;;;5.40;99.90;;;;;;4976109;28;20088;-83
2022/03/20 01:46:38;;;;;;;8.73;4.25;;;5.30;99.90;;;;;;4977677;28;20046;-83
2022/03/20 01:49:04;;;;;;;8.38;4.22;;;5.30;99.90;;;;;;4991719;28;20046;-84
2022/03/20 01:54:15;;;;;;;8.15;4.05;;;5.30;99.90;;;;;;4994687;28;20042;-84
2022/03/20 01:56:44;;;;;;;6.93;4.05;;;5.20;99.90;;;;;;4992423;28;20614;-84
2022/03/20 01:59:09;;;;;;;8.10;4.57;;;5.20;99.90;;;;;;4991968;28;20046;-84
2022/03/20 02:01:35;;;;;;;9.02;4.13;;;5.20;99.90;;;;;;4989963;28;20041;-83
2022/03/20 02:04:01;;;;;;;11.13;5.15;;;5.10;99.90;;;;;;4992871;28;20399;-84
2022/03/20 02:06:27;;;;;;;9.27;5.07;;;5.10;99.90;;;;;;4990901;28;20051;-84
2022/03/20 02:08:56;;;;;;;10.32;5.18;;;5.10;99.90;;;;;;4976875;28;20052;-83
2022/03/20 02:11:26;;;;;;;9.07;4.88;;;5.10;99.90;;;;;;4990550;28;20057;-84
2022/03/20 02:13:52;;;;;;;8.45;5.18;;;5.00;99.90;;;;;;4993070;28;20490;-83
2022/03/20 02:16:18;;;;;;;11.98;5.22;;;5.00;99.90;;;;;;4990676;28;20042;-84
2022/03/20 02:18:45;;;;;;;10.15;4.68;;;5.00;99.90;;;;;;5004263;28;20049;-84
2022/03/20 02:21:10;;;;;;;8.30;4.40;;;4.90;99.90;;;;;;4972802;28;20034;-83
2022/03/20 02:23:36;;;;;;;6.57;3.78;;;4.90;99.90;;;;;;4987930;28;20045;-84
2022/03/20 02:26:03;;;;;;;8.32;4.22;;;4.80;99.90;;;;;;4972416;28;20049;-84
2022/03/20 02:28:29;;;;;;;8.82;4.45;;;4.80;99.90;;;;;;4989458;28;20034;-84
2022/03/20 02:30:55;;;;;;;9.93;4.72;;;4.70;99.90;;;;;;4992943;28;20625;-85
2022/03/20 02:33:23;;;;;;;11.00;4.40;;;4.60;99.90;;;;;;4969594;28;20156;-84
2022/03/20 02:35:51;;;;;;;9.40;4.72;;;4.50;99.90;;;;;;4978137;28;20046;-84
2022/03/20 02:38:18;;;;;;;8.43;4.22;;;4.50;99.90;;;;;;4988151;28;20056;-84
2022/03/20 02:40:45;;;;;;;8.38;4.00;;;4.40;99.90;;;;;;4984548;28;20412;-84
2022/03/20 02:43:11;;;;;;;7.78;4.20;;;4.30;99.90;;;;;;4993170;28;20042;-84
2022/03/20 02:45:38;;;;;;;7.25;4.22;;;4.30;99.90;;;;;;4987028;28;20137;-84
2022/03/20 02:48:04;;;;;;;10.02;4.53;;;4.20;99.90;;;;;;4983105;28;20039;-84
2022/03/20 02:50:35;;;;;;;11.00;4.60;;;4.10;99.90;;;;;;4965481;28;20489;-84
2022/03/20 02:53:13;;;;;;;8.90;4.40;;;4.10;99.90;;;;;;4989184;28;20077;-83
2022/03/20 02:55:47;;;;;;;9.45;4.43;;;4.00;99.90;;;;;;4988334;28;20482;-84
2022/03/20 02:58:17;;;;;;;9.23;4.43;;;4.00;99.90;;;;;;4994556;28;20046;-84
2022/03/20 03:00:44;;;;;;;9.82;5.13;;;4.00;99.90;;;;;;4988688;28;20455;-83
2022/03/20 03:03:11;;;;;;;9.73;4.20;;;3.90;99.90;;;;;;4972529;28;20042;-84
2022/03/20 03:05:38;;;;;;;9.60;4.70;;;3.90;99.90;;;;;;4985292;28;20058;-84
2022/03/20 03:11:01;;;;;;;10.48;4.78;;;3.90;99.90;;;;;;4983383;28;20050;-84
2022/03/20 03:13:31;;;;;;;8.68;4.85;;;3.90;99.90;;;;;;4988213;28;20045;-84
2022/03/20 03:16:03;;;;;;;12.23;5.20;;;3.90;99.90;;;;;;4996965;28;20129;-84
2022/03/20 03:18:29;;;;;;;11.13;4.90;;;3.80;99.90;;;;;;4985408;28;20074;-83
2022/03/20 03:20:55;;;;;;;9.82;5.35;;;3.80;99.90;;;;;;4994768;28;20040;-83
2022/03/20 03:23:21;;;;;;;11.07;5.22;;;3.90;99.90;;;;;;4990704;28;20030;-84
2022/03/20 03:25:47;;;;;;;12.20;5.20;;;3.80;99.90;;;;;;4990566;28;20078;-84
2022/03/20 03:28:13;;;;;;;12.02;5.13;;;3.80;99.90;;;;;;4986665;28;20052;-84
2022/03/20 03:30:42;;;;;;;9.05;4.78;;;3.80;99.90;;;;;;4985183;28;20132;-84
2022/03/20 03:33:08;;;;;;;9.35;4.88;;;3.80;99.90;;;;;;4973511;28;20133;-84
2022/03/20 03:35:42;;;;;;;11.15;5.45;;;3.80;99.90;;;;;;5001343;28;20453;-84
2022/03/20 03:38:16;;;;;;;10.85;6.10;;;3.80;99.90;;;;;;4988158;28;20034;-84
2022/03/20 03:40:44;;;;;;;11.80;5.90;;;3.80;99.90;;;;;;4996827;28;20090;-84
2022/03/20 03:43:11;;;;;;;11.55;5.63;;;3.80;99.90;;;;;;4989956;28;20499;-84
2022/03/20 03:45:40;;;;;;;12.32;6.22;;;3.80;99.90;;;;;;4994042;28;20050;-84
2022/03/20 03:48:07;;;;;;;11.45;5.35;;;3.80;99.90;;;;;;4993109;28;20042;-84
2022/03/20 03:50:33;;;;;;;10.18;5.68;;;3.70;99.90;;;;;;4991360;28;20124;-84
2022/03/20 03:52:59;;;;;;;12.85;5.80;;;3.70;99.90;;;;;;4991740;28;20061;-84
2022/03/20 03:55:25;;;;;;;10.68;5.53;;;3.70;99.90;;;;;;4989537;28;20584;-84
2022/03/20 03:57:52;;;;;;;11.90;6.03;;;3.80;99.90;;;;;;4985742;28;20042;-84
2022/03/20 04:00:19;;;;;;;12.68;6.40;;;3.80;99.90;;;;;;4990993;28;20093;-83
2022/03/20 04:02:46;;;;;;;10.45;6.18;;;3.80;99.90;;;;;;4994600;28;20471;-83
2022/03/20 04:05:14;;;;;;;14.10;6.13;;;3.80;99.90;;;;;;4995226;28;20065;-83
2022/03/20 04:07:40;;;;;;;10.32;6.00;;;3.80;99.90;;;;;;4996436;28;20042;-83
2022/03/20 04:10:06;;;;;;;10.75;6.50;;;3.80;99.90;;;;;;4991917;28;20143;-83
2022/03/20 04:12:36;;;;;;;12.48;5.70;;;3.70;99.90;;;;;;4988979;28;20100;-84
2022/03/20 04:15:05;;;;;;;10.70;5.68;;;3.70;99.90;;;;;;4996569;28;20478;-84
2022/03/20 04:17:32;;;;;;;10.98;6.78;;;3.70;99.90;;;;;;4974852;28;20142;-84
2022/03/20 04:19:58;;;;;;;11.52;5.90;;;3.70;99.90;;;;;;4991458;28;20399;-84
2022/03/20 04:22:28;;;;;;;10.75;5.55;;;3.70;99.90;;;;;;4995076;28;20686;-84
2022/03/20 04:24:55;;;;;;;11.75;6.20;;;3.70;99.90;;;;;;4985418;28;20038;-83
2022/03/20 04:27:21;;;;;;;13.48;6.68;;;3.70;99.90;;;;;;4992286;28;20566;-83
2022/03/20 04:29:48;;;;;;;10.27;6.25;;;3.70;99.90;;;;;;4990999;28;20147;-83
2022/03/20 04:32:14;;;;;;;12.98;6.65;;;3.60;99.90;;;;;;4990844;28;20096;-83
2022/03/20 04:34:43;;;;;;;13.50;6.40;;;3.60;99.90;;;;;;4991258;28;20450;-83
2022/03/20 04:37:10;;;;;;;12.18;6.90;;;3.60;99.90;;;;;;4986347;28;20038;-83
2022/03/20 04:39:37;;;;;;;13.52;6.55;;;3.60;99.90;;;;;;4988243;28;20474;-84
2022/03/20 04:42:04;;;;;;;11.95;6.40;;;3.50;99.90;;;;;;4991614;28;20376;-84
2022/03/20 04:44:30;;;;;;;13.70;7.18;;;3.50;99.90;;;;;;4992900;28;20038;-83
2022/03/20 04:46:56;;;;;;;9.95;6.53;;;3.50;99.90;;;;;;4987015;28;20053;-83
2022/03/20 05:00:20;;;;;;;13.90;7.30;;;3.40;99.90;;;;;;4987696;28;20077;-84
2022/03/20 05:02:47;;;;;;;12.40;6.90;;;3.40;99.90;;;;;;4992408;28;20042;-83
2022/03/20 05:05:12;;;;;;;17.00;8.13;;;3.40;99.90;;;;;;4988820;28;20479;-84
2022/03/20 05:07:38;;;;;;;16.67;7.68;;;3.40;99.90;;;;;;4981974;28;20057;-84
2022/03/20 05:15:33;;;;;;;14.88;7.35;;;3.30;99.90;;;;;;4981349;28;20061;-84
2022/03/20 05:17:59;;;;;;;13.00;7.50;;;3.30;99.90;;;;;;4985967;28;20050;-83
2022/03/20 05:20:26;;;;;;;12.38;7.22;;;3.30;99.90;;;;;;4981195;28;20043;-84
2022/03/20 05:22:52;;;;;;;11.80;7.47;;;3.30;99.90;;;;;;4991045;28;20089;-84
2022/03/20 05:25:18;;;;;;;15.43;8.18;;;3.30;99.90;;;;;;4999322;28;20035;-84
2022/03/20 05:27:44;;;;;;;11.68;6.80;;;3.30;99.90;;;;;;4968472;28;20042;-84
2022/03/20 05:30:10;;;;;;;15.90;7.97;;;3.30;99.90;;;;;;4979956;28;20042;-83
2022/03/20 05:32:37;;;;;;;15.88;7.70;;;3.30;99.90;;;;;;4969339;28;20087;-83
2022/03/20 05:35:08;;;;;;;13.85;7.90;;;3.30;99.90;;;;;;4985947;28;20042;-84
2022/03/20 05:37:34;;;;;;;19.90;8.73;;;3.30;99.90;;;;;;4981500;28;20039;-84
2022/03/20 05:40:00;;;;;;;14.38;7.70;;;3.30;99.90;;;;;;4985630;28;20534;-83
2022/03/20 05:42:26;;;;;;;12.15;7.68;;;3.20;99.90;;;;;;4978325;28;20129;-84
2022/03/20 05:44:52;;;;;;;15.55;7.28;;;3.20;99.90;;;;;;4981880;28;20471;-84
2022/03/20 05:47:18;;;;;;;15.50;7.82;;;3.20;99.90;;;;;;4980433;28;20042;-84
2022/03/20 05:49:43;;;;;;;14.65;7.82;;;3.20;99.90;;;;;;4967257;28;20128;-84
2022/03/20 05:52:09;;;;;;;16.80;7.97;;;3.20;99.90;;;;;;4985130;28;20042;-84
2022/03/20 05:54:35;;;;;;;14.18;8.35;;;3.20;99.90;;;;;;4981440;28;20485;-83
2022/03/20 05:59:45;;;;;;;17.98;8.48;;;3.30;99.80;;;;;;4977166;28;20059;-83
2022/03/20 06:02:10;;;;;;;14.82;8.57;;;3.30;99.60;;;;;;4982861;28;20470;-84
2022/03/20 06:04:37;;;;;;;13.27;8.00;;;3.20;99.80;;;;;;4987566;28;20042;-84
2022/03/20 06:07:03;;;;;;;16.40;8.30;;;3.20;99.20;;;;;;5012629;28;20061;-84
2022/03/20 06:09:30;;;;;;;13.32;8.38;;;3.20;99.30;;;;;;4997737;28;20063;-84
2022/03/20 06:11:56;;;;;;;14.77;8.32;;;3.30;99.00;;;;;;5014479;28;20108;-83
2022/03/20 06:14:22;;;;;;;15.70;8.40;;;3.30;98.80;;;;;;4996837;28;20116;-84
2022/03/20 06:16:48;;;;;;;14.65;9.00;;;3.30;98.70;;;;;;5015335;28;20088;-84
2022/03/20 06:19:17;;;;;;;14.70;8.35;;;3.30;98.60;;;;;;4976074;28;20050;-84
2022/03/20 06:21:44;;;;;;;14.82;8.48;;;3.30;98.40;;;;;;4981712;28;20040;-84
2022/03/20 06:24:10;;;;;;;17.80;8.80;;;3.30;98.50;;;;;;5008429;28;20046;-84
2022/03/20 06:26:36;;;;;;;15.90;7.78;;;3.30;98.50;;;;;;5009759;28;20116;-84
2022/03/20 06:29:05;;;;;;;16.65;8.60;;;3.30;98.20;;;;;;4979034;28;20042;-84
2022/03/20 06:31:31;;;;;;;14.82;8.43;;;3.30;97.90;;;;;;4994782;28;20698;-84
2022/03/20 06:33:57;;;;;;;15.45;8.70;;;3.40;97.70;;;;;;4994544;28;20567;-84
2022/03/20 06:36:23;;;;;;;16.92;9.68;;;3.40;97.30;;;;;;4997471;28;20046;-84
2022/03/20 06:38:49;;;;;;;14.68;8.68;;;3.40;96.90;;;;;;4996742;28;20042;-84
2022/03/20 06:41:15;;;;;;;14.43;8.52;;;3.50;96.50;;;;;;5013091;28;20040;-83
2022/03/20 06:43:40;;;;;;;15.68;9.20;;;3.50;96.20;;;;;;5009481;28;20112;-84
2022/03/20 06:46:07;;;;;;;15.63;8.57;;;3.50;95.90;;;;;;5010234;28;20077;-83
2022/03/20 06:48:33;;;;;;;14.65;8.95;;;3.50;95.80;;;;;;5016245;28;20128;-83
2022/03/20 06:51:00;;;;;;;18.48;9.30;;;3.50;95.50;;;;;;4994707;28;20038;-84
2022/03/20 06:53:25;;;;;;;15.98;9.30;;;3.60;95.30;;;;;;5012244;28;20605;-84
2022/03/20 06:55:51;;;;;;;34.78;10.27;;;3.60;95.10;;;;;;4995454;28;20106;-84
2022/03/20 06:58:20;;;;;;;14.65;8.75;;;3.60;94.80;;;;;;4979843;28;20107;-84
2022/03/20 07:00:46;;;;;;;14.88;8.82;;;3.60;94.50;;;;;;4997334;28;20112;-83
2022/03/20 07:03:12;;;;;;;14.77;8.90;;;3.70;94.40;;;;;;4986404;28;20038;-84
2022/03/20 07:05:38;;;;;;;15.90;9.63;;;3.70;94.10;;;;;;5017200;28;20065;-84
2022/03/20 07:08:05;;;;;;;14.50;8.88;;;3.70;93.80;;;;;;5010222;28;20472;-84
2022/03/20 07:10:32;;;;;;;15.45;8.93;;;3.70;93.60;;;;;;5018396;28;20077;-83
2022/03/20 07:15:45;;;;;;;17.35;9.05;;;3.80;93.10;;;;;;4995014;28;20423;-83
2022/03/20 07:18:16;;;;;;;16.48;8.93;;;3.80;93.00;;;;;;4994263;28;20045;-83
2022/03/20 07:20:44;;;;;;;18.17;9.43;;;3.90;92.80;;;;;;5014358;28;20055;-84
2022/03/20 07:23:11;;;;;;;16.33;8.77;;;3.90;92.40;;;;;;4999745;28;20153;-84
2022/03/20 07:31:06;;;;;;;15.05;9.07;;;4.00;91.70;;;;;;5012661;28;20054;-84
2022/03/20 07:33:33;;;;;;;18.10;9.50;;;4.10;91.20;;;;;;4993522;28;20489;-83
2022/03/20 07:35:59;;;;;;;17.08;9.65;;;4.10;90.80;;;;;;4996214;28;20042;-84
2022/03/20 07:38:25;;;;;;;19.05;9.25;;;4.20;90.50;;;;;;4996527;28;20869;-84
2022/03/20 07:40:51;;;;;;;15.55;9.20;;;4.20;90.20;;;;;;4990131;28;20121;-84
2022/03/20 07:43:17;;;;;;;18.17;10.55;;;4.30;90.00;;;;;;4974251;28;20128;-85
2022/03/20 07:45:42;;;;;;;16.55;10.30;;;4.30;89.90;;;;;;4990986;28;20264;-83
2022/03/20 07:48:08;;;;;;;18.40;10.02;;;4.40;89.10;;;;;;5001200;28;20041;-83
2022/03/20 07:50:35;;;;;;;16.50;9.77;;;4.40;88.20;;;;;;5012888;28;20034;-84
2022/03/20 07:53:01;;;;;;;18.42;10.15;;;4.50;85.70;;;;;;5009091;28;20030;-84
2022/03/20 07:55:29;;;;;;;17.25;9.43;;;4.60;84.40;;;;;;5003658;28;20520;-84
2022/03/20 07:57:56;;;;;;;16.95;10.35;;;4.60;84.40;;;;;;4977677;28;20046;-83
2022/03/20 08:00:22;;;;;;;17.17;10.45;;;4.70;84.00;;;;;;4996465;28;20117;-83
2022/03/20 08:02:48;;;;;;;17.00;9.77;;;4.80;83.40;;;;;;4979695;28;20085;-83
2022/03/20 08:05:15;;;;;;;17.42;10.30;;;4.80;82.50;;;;;;5007355;28;20115;-83
2022/03/20 08:07:40;;;;;;;17.30;10.32;;;4.90;81.70;;;;;;4997683;28;20042;-84
2022/03/20 08:10:08;;;;;;;18.05;10.43;;;4.90;81.50;;;;;;4986008;28;20034;-84
2022/03/20 08:12:34;;;;;;;20.77;11.25;;;5.00;79.40;;;;;;4992517;28;20118;-83
2022/03/20 08:15:00;;;;;;;18.30;10.73;;;5.00;77.60;;;;;;4976254;28;20446;-83
2022/03/20 08:17:28;;;;;;;16.30;10.23;;;5.10;77.30;;;;;;5003987;28;20100;-84
2022/03/20 08:19:53;;;;;;;19.70;10.80;;;5.10;76.60;;;;;;5011317;28;20090;-83
2022/03/20 08:22:19;;;;;;;18.25;10.73;;;5.20;76.40;;;;;;5009005;28;20482;-83
2022/03/20 08:24:47;;;;;;;20.02;11.10;;;5.30;75.40;;;;;;4990445;28;20037;-84
2022/03/20 08:27:12;;;;;;;18.42;10.50;;;5.30;74.80;;;;;;4995468;28;20038;-83
2022/03/20 08:29:38;;;;;;;16.95;10.82;;;5.40;73.90;;;;;;4998604;28;20045;-83
2022/03/20 08:32:05;;;;;;;17.85;11.07;;;5.40;73.60;;;;;;4992279;28;20042;-84
2022/03/20 08:34:31;;;;;;;17.23;10.13;;;5.50;73.90;;;;;;4996305;28;20432;-83
2022/03/20 08:36:56;;;;;;;17.25;10.80;;;5.50;73.30;;;;;;4995062;28;20114;-83
2022/03/20 08:39:22;;;;;;;18.85;9.68;;;5.60;72.90;;;;;;5010629;28;20049;-83
2022/03/20 08:41:48;;;;;;;17.70;10.82;;;5.70;71.60;;;;;;5010640;28;20033;-83
2022/03/20 08:44:14;;;;;;;14.88;9.88;;;5.80;71.30;;;;;;4981201;28;21074;-83
2022/03/20 08:46:40;;;;;;;22.35;11.52;;;5.90;71.10;;;;;;5008071;28;20038;-84
2022/03/20 08:49:07;;;;;;;16.85;10.32;;;6.00;70.70;;;;;;4993041;28;20501;-84
2022/03/20 08:51:34;;;;;;;18.38;11.23;;;6.00;70.10;;;;;;4961897;28;20036;-84
2022/03/20 08:54:01;;;;;;;18.00;10.73;;;6.10;69.80;;;;;;4993040;28;20037;-84
2022/03/20 08:56:27;;;;;;;18.13;10.70;;;6.20;69.90;;;;;;5007830;28;20597;-83
2022/03/20 08:58:53;;;;;;;19.95;11.35;;;6.30;68.50;;;;;;4982038;28;20041;-84
2022/03/20 09:01:19;;;;;;;18.52;10.75;;;6.30;66.60;;;;;;4994379;28;20823;-84
2022/03/20 09:03:49;;;;;;;23.83;11.27;;;6.40;66.00;;;;;;4995660;28;20053;-84
2022/03/20 09:06:22;;;;;;;18.15;11.15;;;6.40;66.40;;;;;;4996127;28;20054;-84
2022/03/20 09:08:48;;;;;;;18.88;11.23;;;6.50;65.60;;;;;;4994155;28;20054;-84
2022/03/20 09:11:14;;;;;;;20.17;12.20;;;6.60;65.40;;;;;;5013729;28;20057;-84
2022/03/20 09:13:39;;;;;;;17.65;11.63;;;6.70;64.00;;;;;;4994137;28;20030;-84
2022/03/20 09:18:59;;;;;;;15.88;10.35;;;6.80;62.50;;;;;;4992207;28;20487;-84
2022/03/20 09:21:33;;;;;;;16.85;11.15;;;6.90;62.40;;;;;;4991360;28;20034;-84
2022/03/20 09:24:00;;;;;;;16.88;11.13;;;7.00;62.10;;;;;;4992143;28;20587;-84
2022/03/20 09:26:26;;;;;;;17.77;10.73;;;7.00;61.00;;;;;;4993923;28;20088;-84
2022/03/20 09:28:52;;;;;;;18.25;11.63;;;7.10;60.20;;;;;;4994666;28;20038;-84
2022/03/20 09:31:21;;;;;;;18.58;11.23;;;7.10;60.70;;;;;;4991776;28;20110;-85
2022/03/20 09:33:48;;;;;;;18.15;11.35;;;7.20;60.40;;;;;;4976032;28;20053;-84
2022/03/20 09:36:14;;;;;;;19.50;11.40;;;7.30;60.70;;;;;;4979472;28;20057;-84
2022/03/20 09:38:40;;;;;;;22.20;11.85;;;7.40;59.90;;;;;;5008663;28;20045;-85
2022/03/20 09:41:08;;;;;;;18.73;11.75;;;7.50;59.10;;;;;;4991449;28;20026;-84
2022/03/20 09:43:36;;;;;;;19.45;11.68;;;7.60;58.80;;;;;;4992769;28;20446;-85
2022/03/20 09:46:02;;;;;;;20.02;11.38;;;7.60;58.90;;;;;;5008410;28;20126;-85
2022/03/20 09:48:31;;;;;;;19.30;12.13;;;7.70;58.80;;;;;;5006806;28;20397;-84
2022/03/20 09:51:01;;;;;;;20.50;12.02;;;7.80;58.90;;;;;;5004571;28;20033;-85
2022/03/20 09:53:27;;;;;;;19.70;13.05;;;8.00;58.20;;;;;;4985015;28;20048;-84
2022/03/20 09:55:56;;;;;;;18.67;12.10;;;8.10;56.90;;;;;;4971888;28;20049;-85
2022/03/20 09:58:26;;;;;;;19.17;12.07;;;8.20;56.90;;;;;;4994265;28;20057;-85
2022/03/20 10:00:53;;;;;;;21.17;12.50;;;8.30;56.50;;;;;;4993830;28;20030;-84
2022/03/20 10:03:21;;;;;;;19.15;12.25;;;8.30;55.90;;;;;;4993392;28;20046;-84
2022/03/20 10:06:19;;;;;;;18.55;11.68;;;8.40;55.70;;;;;;4991405;28;20045;-84
2022/03/20 10:08:58;;;;;;;20.27;12.82;;;8.50;55.80;;;;;;5010170;28;20616;-84
2022/03/20 10:11:25;;;;;;;20.20;12.07;;;8.70;55.30;;;;;;5009384;28;20535;-84
2022/03/20 10:14:13;;;;;;;20.50;12.43;;;8.80;55.00;;;;;;4993383;28;20125;-85
2022/03/20 10:16:44;;;;;;;20.77;12.68;;;9.00;55.00;;;;;;4988916;28;20037;-84
2022/03/20 10:19:22;;;;;;;19.80;12.63;;;9.10;54.00;;;;;;4989520;28;20048;-85
2022/03/20 10:21:52;;;;;;;21.80;12.52;;;9.00;53.20;;;;;;5005958;28;20466;-85
2022/03/20 10:24:20;;;;;;;19.58;12.73;;;9.10;53.70;;;;;;5012906;28;20045;-85
2022/03/20 10:26:52;;;;;;;21.48;13.23;;;9.20;53.30;;;;;;4991973;28;20065;-85
2022/03/20 10:29:18;;;;;;;19.27;12.90;;;9.30;53.00;;;;;;5009053;28;20049;-84
2022/03/20 10:31:49;;;;;;;21.00;12.63;;;9.40;53.10;;;;;;5011894;28;20363;-85
2022/03/20 10:34:15;;;;;;;18.35;12.18;;;9.50;52.90;;;;;;4973135;28;20068;-85
2022/03/20 10:36:43;;;;;;;18.55;12.80;;;9.60;52.50;;;;;;5007348;28;20423;-84
2022/03/20 10:39:15;;;;;;;21.95;12.90;;;9.60;52.00;;;;;;5002439;28;20057;-84
2022/03/20 10:41:41;;;;;;;20.42;12.07;;;9.60;51.20;;;;;;5001451;28;20112;-84
2022/03/20 10:44:21;;;;;;;20.63;13.00;;;9.70;51.40;;;;;;5015861;28;20113;-84
2022/03/20 10:47:12;;;;;;;19.63;12.25;;;9.70;51.20;;;;;;5005339;28;20390;-84
2022/03/20 10:49:40;;;;;;;39.80;13.63;;;9.70;51.50;;;;;;4990820;28;20049;-84
2022/03/20 10:52:11;;;;;;;19.98;13.07;;;9.80;51.40;;;;;;5004984;28;20045;-84
2022/03/20 10:54:50;;;;;;;22.42;12.70;;;9.90;50.90;;;;;;4990033;28;20586;-84
2022/03/20 10:57:16;;;;;;;18.92;12.07;;;9.90;50.90;;;;;;4991823;28;20038;-84
2022/03/20 10:59:43;;;;;;;21.55;12.43;;;10.00;51.40;;;;;;4998429;28;20427;-85
2022/03/20 11:02:23;;;;;;;22.90;13.90;;;10.10;51.50;;;;;;5002687;28;20026;-84
2022/03/20 11:04:49;;;;;;;21.13;12.30;;;10.20;51.00;;;;;;4992258;28;20125;-84
2022/03/20 11:07:21;;;;;;;20.98;13.52;;;10.30;51.10;;;;;;5007588;28;20143;-84
2022/03/20 11:09:52;;;;;;;20.33;13.38;;;10.50;50.90;;;;;;4993560;28;20375;-84
2022/03/20 11:12:34;;;;;;;21.85;13.25;;;10.60;50.60;;;;;;4989436;28;20038;-84
2022/03/20 11:15:03;;;;;;;19.55;13.15;;;10.60;50.20;;;;;;5009718;28;20144;-84
2022/03/20 11:17:48;;;;;;;22.23;13.13;;;10.70;50.00;;;;;;5006443;28;20041;-84
2022/03/20 11:20:16;;;;;;;26.40;14.10;;;10.80;50.00;;;;;;5010545;28;20514;-84
2022/03/20 11:22:46;;;;;;;20.48;14.20;;;10.80;49.40;;;;;;4990601;28;20442;-84
2022/03/20 11:25:14;;;;;;;19.27;12.75;;;10.90;49.30;;;;;;5010186;28;20524;-84
2022/03/20 11:27:42;;;;;;;23.33;13.93;;;11.00;49.30;;;;;;5010799;28;20045;-84
2022/03/20 11:30:08;;;;;;;20.20;13.48;;;11.10;48.80;;;;;;4991098;28;20042;-84
2022/03/20 11:32:35;;;;;;;19.27;13.30;;;11.20;48.70;;;;;;5011208;28;20145;-84
2022/03/20 11:35:03;;;;;;;22.30;14.15;;;11.30;48.60;;;;;;5006549;28;20057;-84
2022/03/20 11:37:43;;;;;;;24.83;13.43;;;11.40;48.00;;;;;;4992572;28;20498;-84
2022/03/20 11:40:17;;;;;;;21.50;13.30;;;11.50;47.90;;;;;;4991551;28;20091;-84
2022/03/20 11:42:43;;;;;;;20.48;13.65;;;11.70;47.40;;;;;;4992703;28;20095;-84
2022/03/20 11:45:20;;;;;;;20.05;13.63;;;11.70;47.60;;;;;;4978043;28;20034;-84
2022/03/20 11:47:51;;;;;;;22.73;14.85;;;11.80;47.10;;;;;;4993000;28;20030;-84
2022/03/20 11:50:25;;;;;;;20.42;13.65;;;11.80;47.20;;;;;;4991622;28;20189;-84
2022/03/20 11:53:00;;;;;;;23.40;13.63;;;11.90;47.10;;;;;;5007160;28;20080;-84
2022/03/20 11:55:38;;;;;;;21.95;14.55;;;11.80;47.10;;;;;;4978003;28;20521;-84
2022/03/20 11:58:10;;;;;;;19.85;13.57;;;11.70;46.50;;;;;;4990200;28;20105;-84
2022/03/20 12:00:40;;;;;;;21.08;14.48;;;11.50;47.40;;;;;;4976803;28;20030;-84
2022/03/20 12:03:26;;;;;;;19.92;13.63;;;11.30;47.50;;;;;;5012354;28;20041;-85
2022/03/20 12:06:27;;;;;;;21.08;14.10;;;11.20;49.00;;;;;;4992026;28;20050;-84
2022/03/20 12:09:17;;;;;;;19.55;13.73;;;11.10;48.00;;;;;;4995892;28;20437;-84
2022/03/20 12:12:02;;;;;;;20.20;13.35;;;10.90;48.30;;;;;;4991335;28;20094;-84
2022/03/20 12:14:56;;;;;;;22.27;13.75;;;10.80;48.30;;;;;;4992134;28;20450;-84
2022/03/20 12:17:22;;;;;;;21.77;14.30;;;10.80;48.20;;;;;;4992650;28;20058;-84
2022/03/20 12:19:49;;;;;;;21.25;13.90;;;10.70;48.90;;;;;;4994508;28;20053;-84
2022/03/20 12:22:35;;;;;;;24.05;14.73;;;10.70;49.40;;;;;;4982129;28;20039;-84
2022/03/20 12:25:04;;;;;;;20.88;14.05;;;10.60;48.70;;;;;;4990179;28;20050;-84
2022/03/20 12:27:30;;;;;;;20.98;13.98;;;10.60;49.10;;;;;;4992905;28;20145;-84
2022/03/20 12:30:03;;;;;;;20.80;13.68;;;10.50;50.40;;;;;;4988710;28;20403;-84
2022/03/20 12:32:47;;;;;;;20.98;13.98;;;10.50;49.80;;;;;;4992529;28;20035;-85
2022/03/20 12:35:12;;;;;;;20.92;13.88;;;10.50;50.10;;;;;;4996067;28;20555;-84
2022/03/20 12:37:40;;;;;;;22.80;14.40;;;10.50;50.00;;;;;;4990237;28;20125;-85
2022/03/20 12:40:08;;;;;;;21.48;13.90;;;10.40;49.60;;;;;;4989710;28;20125;-85
2022/03/20 12:42:39;;;;;;;19.63;13.45;;;10.30;49.90;;;;;;4991875;28;20042;-85
2022/03/20 12:45:08;;;;;;;22.02;14.73;;;10.20;50.30;;;;;;4971780;28;20034;-84
2022/03/20 12:47:34;;;;;;;21.45;14.35;;;10.10;50.50;;;;;;4989701;28;20045;-84
2022/03/20 12:50:07;;;;;;;25.77;15.15;;;10.10;50.80;;;;;;4973587;28;20050;-84
2022/03/20 12:52:35;;;;;;;22.35;14.00;;;10.00;50.90;;;;;;4994816;28;20030;-84
2022/03/20 12:55:04;;;;;;;22.90;14.20;;;10.00;50.90;;;;;;4968265;28;20113;-84
2022/03/20 12:57:37;;;;;;;23.40;13.75;;;10.00;51.30;;;;;;4977524;28;20038;-84
2022/03/20 13:00:07;;;;;;;24.23;15.02;;;10.10;51.40;;;;;;4987778;28;20152;-84
2022/03/20 13:02:33;;;;;;;22.17;14.43;;;10.10;51.50;;;;;;5008747;28;20455;-84
2022/03/20 13:05:10;;;;;;;20.33;13.70;;;10.10;51.10;;;;;;4990501;28;20223;-84
2022/03/20 13:07:38;;;;;;;25.15;14.50;;;10.40;51.20;;;;;;4997897;28;20045;-85
2022/03/20 13:10:04;;;;;;;21.00;14.07;;;10.70;51.10;;;;;;4990004;28;20205;-85
2022/03/20 13:12:52;;;;;;;21.50;14.00;;;11.00;50.30;;;;;;5010801;28;20038;-85
2022/03/20 13:15:23;;;;;;;20.30;14.20;;;11.30;50.10;;;;;;4997250;28;20041;-84
2022/03/20 13:17:48;;;;;;;20.73;13.77;;;11.40;49.80;;;;;;5011030;28;20490;-84
2022/03/20 13:20:23;;;;;;;23.88;15.00;;;11.80;50.30;;;;;;4995135;28;20070;-85
2022/03/20 13:22:49;;;;;;;23.00;14.68;;;12.00;48.30;;;;;;5011791;28;20041;-85
2022/03/20 13:25:20;;;;;;;22.23;14.15;;;12.00;47.50;;;;;;5009575;28;20046;-85